Volkel, Nederland

11:19 PM CET op 18 december 2014 (GMT +0100)
Weerstation | Change Station
CLOSE
Current Station
Persoonlijk weerstation
Location: Sint Hubert, N. Br.
Geometrische hoogte: 34 ft
Nabije weerstations

Hoogte 34 ft 51.67 °N, 5.81 °E | Updated 3 minutes ago

Overcast
Geheel bewolkt
53.6 °F
Voelt als 53.6 °F
N
17.0
Wind Variabel Wind van WZW
Gusts 23.0 mijl/u

Vandaag
Hoog -- | Laag -- °F
--% Kans op neerslag
Gisteren
Hoog -- | Laag -- °F
Precip. -- inches
8:39 AM 4:28 PM
Afnemende halvemaan, 12% visible
Druk 29.83 inches
Zicht 2.8 mijlen
Wolken Gering 700 ft
Merendeels bewolkt 800 ft
Geheel bewolkt 1000 ft
Dauwpunt 52 °F
Vochtigheid 96%
Neerslag 0.07 inches
Dikte sneeuw Niet beschikbaar.
UV 0 van de 12
Pollen Niet beschikbaar.
Luchtkwaliteit Niet beschikbaar.
Flu Activity Niet beschikbaar.
METAR EHVK 182155Z AUTO 24020KT 4500 BR FEW007 BKN008 OVC010 12/11 Q1010 GRN

More Conditions Fewer Conditions

Druk 29.83 inches
Zicht 2.8 mijlen
Wolken Gering 700 ft
Merendeels bewolkt 800 ft
Geheel bewolkt 1000 ft
Dauwpunt 52 °F
Vochtigheid 96%
Neerslag 0.07 inches
Dikte sneeuw Niet beschikbaar.
UV 0 van de 12
Pollen Niet beschikbaar.
Luchtkwaliteit Niet beschikbaar.
Flu Activity Niet beschikbaar.
METAR EHVK 182155Z AUTO 24020KT 4500 BR FEW007 BKN008 OVC010 12/11 Q1010 GRN

More Conditions Fewer Conditions

10-Day Weather Forecast

Almanac

Astronomie

Dec. 18, 2014 Opkomst Ondergang
Werkelijke tijd
Burgerlijke schemering
Nautische schemering
Astronomische schemering
Maan
Golflengte van het zichtbare licht
Daglengte
Tomorrow will be .
, % of the Moon is Illuminated

Extremen vandaag

Country Highs Country Lows

Community

WunderPhotos

Upload Photos

1,779,006 foto’s ge-upload!

WunderBlogs® & News

Nearby

Luchtkwaliteit

  Luchtkwaliteit LK-index Verontreinigende stof
Not available.

Dikte sneeuw

Station Depth Geometrische hoogte

Aardbevingen

Stad Distance Mag. Time & Date
Minimum magnitude displayed is 2.5.

Watertemperatuur langs de kust

Plaats Temperatuur

Nabije weerstations